createdAt,value
2018-12-27T00:00:56.401Z,39.23
2018-12-27T00:03:36.329Z,39.90
2018-12-27T00:06:16.466Z,38.67
2018-12-27T00:08:56.742Z,38.95
2018-12-27T00:11:36.645Z,41.18
2018-12-27T00:14:16.835Z,40.52
2018-12-27T00:16:56.946Z,38.55
2018-12-27T00:19:37.241Z,36.28
2018-12-27T00:22:17.224Z,36.23
2018-12-27T00:24:57.337Z,41.45
2018-12-27T00:27:37.059Z,40.03
2018-12-27T00:30:17.146Z,46.85
2018-12-27T00:33:03.147Z,36.77
2018-12-27T00:35:39.301Z,35.03
2018-12-27T00:38:19.201Z,39.55
2018-12-27T00:40:59.461Z,42.78
2018-12-27T00:43:39.629Z,42.08
2018-12-27T00:46:19.693Z,37.45
2018-12-27T00:48:59.434Z,36.75
2018-12-27T00:51:39.580Z,39.08
2018-12-27T00:54:19.452Z,34.88
2018-12-27T00:56:59.729Z,36.75
2018-12-27T00:59:39.611Z,42.27
2018-12-27T01:02:19.752Z,36.63
2018-12-27T01:04:59.680Z,41.45
2018-12-27T01:07:39.717Z,35.85
2018-12-27T01:10:19.509Z,41.42
2018-12-27T01:12:59.585Z,37.10
2018-12-27T01:15:39.942Z,36.83
2018-12-27T01:18:20.025Z,39.05
2018-12-27T01:21:00.170Z,35.55
2018-12-27T01:23:40.372Z,33.33
2018-12-27T01:26:20.293Z,35.63
2018-12-27T01:29:00.777Z,42.55
2018-12-27T01:31:40.617Z,38.45
2018-12-27T01:34:20.762Z,36.35
2018-12-27T01:37:00.681Z,38.40
2018-12-27T01:39:40.710Z,33.00
2018-12-27T01:42:20.613Z,33.85
2018-12-27T01:45:00.728Z,36.65
2018-12-27T01:47:40.870Z,33.78
2018-12-27T01:50:21.118Z,41.00
2018-12-27T01:53:01.373Z,36.10
2018-12-27T01:55:41.597Z,32.63
2018-12-27T01:58:21.517Z,34.60
2018-12-27T02:01:01.778Z,39.78
2018-12-27T02:03:41.625Z,39.78
2018-12-27T02:06:22.003Z,37.70
2018-12-27T02:09:02.005Z,38.40
2018-12-27T02:11:42.105Z,33.40
2018-12-27T02:14:21.966Z,39.18
2018-12-27T02:17:01.980Z,33.20
2018-12-27T02:19:42.215Z,36.42
2018-12-27T02:22:22.309Z,36.63
2018-12-27T02:25:02.492Z,37.60
2018-12-27T02:27:42.410Z,37.55
2018-12-27T02:30:22.571Z,35.43
2018-12-27T02:33:02.404Z,34.53
2018-12-27T02:35:42.610Z,38.55
2018-12-27T02:38:22.577Z,39.08
2018-12-27T02:41:02.730Z,46.50
2018-12-27T02:43:42.498Z,32.17
2018-12-27T02:46:22.877Z,36.35
2018-12-27T02:49:03.050Z,34.67
2018-12-27T02:51:43.185Z,36.38
2018-12-27T02:54:23.117Z,34.30
2018-12-27T02:57:03.124Z,34.80
2018-12-27T02:59:43.363Z,32.78
2018-12-27T03:02:23.585Z,33.28
2018-12-27T03:05:03.587Z,36.63
2018-12-27T03:07:43.485Z,35.40
2018-12-27T03:10:23.257Z,34.03
2018-12-27T03:13:03.441Z,40.28
2018-12-27T03:15:43.521Z,35.60
2018-12-27T03:18:23.497Z,38.10
2018-12-27T03:21:03.382Z,33.40
2018-12-27T03:23:43.413Z,33.67
2018-12-27T03:26:23.429Z,35.75
2018-12-27T03:29:03.696Z,30.45
2018-12-27T03:31:43.522Z,38.67
2018-12-27T03:34:23.554Z,36.00
2018-12-27T03:37:03.565Z,36.83
2018-12-27T03:39:43.572Z,32.05
2018-12-27T03:42:23.548Z,32.33
2018-12-27T03:45:03.680Z,34.90
2018-12-27T03:47:43.649Z,34.58
2018-12-27T03:50:23.918Z,38.50
2018-12-27T03:53:03.853Z,38.05
2018-12-27T03:55:43.994Z,34.18
2018-12-27T03:58:23.908Z,35.98
2018-12-27T04:01:03.857Z,36.17
2018-12-27T04:03:43.762Z,32.78
2018-12-27T04:06:23.935Z,33.75
2018-12-27T04:09:04.097Z,32.60
2018-12-27T04:11:44.033Z,34.38
2018-12-27T04:14:23.880Z,33.78
2018-12-27T04:17:04.013Z,28.80
2018-12-27T04:19:43.861Z,30.52
2018-12-27T04:22:24.208Z,35.45
2018-12-27T04:25:04.058Z,31.52
2018-12-27T04:27:44.351Z,33.00
2018-12-27T04:30:24.230Z,32.28
2018-12-27T04:36:26.640Z,37.90
2018-12-27T04:39:06.550Z,31.87
2018-12-27T04:41:46.621Z,33.60
2018-12-27T04:44:26.764Z,33.15
2018-12-27T04:47:06.780Z,28.85
2018-12-27T04:49:46.977Z,30.50
2018-12-27T04:52:26.918Z,34.67
2018-12-27T04:55:07.277Z,31.55
2018-12-27T04:57:47.252Z,29.32
2018-12-27T05:00:27.344Z,31.60
2018-12-27T05:03:07.433Z,30.95
2018-12-27T05:05:47.510Z,33.08
2018-12-27T05:08:27.401Z,32.28
2018-12-27T05:11:07.316Z,29.92
2018-12-27T05:13:47.257Z,27.15
2018-12-27T05:16:27.508Z,28.62
2018-12-27T05:19:07.771Z,28.95
2018-12-27T05:21:47.693Z,26.07
2018-12-27T05:24:27.888Z,30.27
2018-12-27T05:27:07.993Z,32.28
2018-12-27T05:29:47.985Z,34.48
2018-12-27T05:32:28.119Z,25.20
2018-12-27T05:35:08.405Z,27.90
2018-12-27T05:37:48.458Z,30.55
2018-12-27T05:40:28.352Z,32.78
2018-12-27T05:43:08.117Z,32.00
2018-12-27T05:45:48.112Z,27.87
2018-12-27T05:48:28.352Z,30.77
2018-12-27T05:51:08.276Z,28.35
2018-12-27T05:53:48.335Z,30.20
2018-12-27T05:56:28.344Z,31.30
2018-12-27T05:59:08.300Z,27.15
2018-12-27T06:01:48.588Z,29.35
2018-12-27T06:04:33.799Z,27.13
2018-12-27T06:07:10.783Z,26.95
2018-12-27T06:09:50.669Z,27.75
2018-12-27T06:12:30.721Z,31.02
2018-12-27T06:15:10.682Z,33.18
2018-12-27T06:17:50.712Z,34.10
2018-12-27T06:20:30.733Z,31.02
2018-12-27T06:23:10.889Z,29.27
2018-12-27T06:25:50.712Z,29.63
2018-12-27T06:28:30.872Z,28.35
2018-12-27T06:31:10.733Z,27.00
2018-12-27T06:33:50.838Z,30.65
2018-12-27T06:36:30.809Z,35.38
2018-12-27T06:39:10.988Z,29.18
2018-12-27T06:41:50.761Z,26.20
2018-12-27T06:44:30.664Z,30.25
2018-12-27T06:47:10.784Z,27.42
2018-12-27T06:49:50.774Z,26.15
2018-12-27T06:52:30.788Z,30.30
2018-12-27T06:55:10.956Z,27.85
2018-12-27T06:57:50.873Z,29.95
2018-12-27T07:00:30.985Z,33.60
2018-12-27T07:03:10.833Z,30.17
2018-12-27T07:05:51.113Z,28.32
2018-12-27T07:08:31.212Z,29.95
2018-12-27T07:11:11.162Z,29.42
2018-12-27T07:13:51.309Z,26.60
2018-12-27T07:16:31.286Z,31.02
2018-12-27T07:19:11.441Z,31.33
2018-12-27T07:21:51.574Z,34.73
2018-12-27T07:24:31.678Z,32.75
2018-12-27T07:27:11.352Z,34.73
2018-12-27T07:29:51.525Z,31.12
2018-12-27T07:32:31.495Z,31.62
2018-12-27T07:35:11.741Z,35.43
2018-12-27T07:37:51.688Z,27.98
2018-12-27T07:40:31.572Z,29.12
2018-12-27T07:43:11.612Z,27.52
2018-12-27T07:45:51.604Z,27.65
2018-12-27T07:48:31.581Z,29.82
2018-12-27T07:51:11.581Z,29.75
2018-12-27T07:53:51.672Z,26.93
2018-12-27T07:56:31.708Z,26.10
2018-12-27T07:59:11.765Z,27.52
2018-12-27T08:01:51.900Z,30.57
2018-12-27T08:04:32.121Z,26.10
2018-12-27T08:07:12.045Z,27.62
2018-12-27T08:09:51.952Z,32.30
2018-12-27T08:12:32.181Z,27.25
2018-12-27T08:15:11.890Z,28.60
2018-12-27T08:17:51.926Z,29.60
2018-12-27T08:20:32.047Z,30.25
2018-12-27T08:23:11.901Z,32.28
2018-12-27T08:25:51.962Z,32.08
2018-12-27T08:28:31.760Z,32.15
2018-12-27T08:31:11.980Z,31.50
2018-12-27T08:33:52.198Z,35.28
2018-12-27T08:36:32.379Z,29.55
2018-12-27T08:39:12.089Z,27.07
2018-12-27T08:41:52.052Z,26.25
2018-12-27T08:44:31.929Z,27.00
2018-12-27T08:47:12.455Z,26.80
2018-12-27T08:49:52.075Z,27.25
2018-12-27T08:52:32.201Z,28.90
2018-12-27T08:55:12.070Z,28.35
2018-12-27T08:57:52.213Z,25.90
2018-12-27T09:00:32.259Z,26.40
2018-12-27T09:03:12.475Z,37.13
2018-12-27T09:05:52.352Z,28.50
2018-12-27T09:08:32.500Z,26.77
2018-12-27T09:11:12.703Z,30.48
2018-12-27T09:13:55.815Z,32.23
2018-12-27T09:16:37.312Z,29.18
2018-12-27T09:19:16.780Z,30.48
2018-12-27T09:21:56.785Z,27.30
2018-12-27T09:24:36.793Z,27.50
2018-12-27T09:27:16.545Z,26.82
2018-12-27T09:29:56.646Z,26.10
2018-12-27T09:32:36.630Z,24.92
2018-12-27T09:35:16.816Z,26.12
2018-12-27T09:37:56.692Z,25.23
2018-12-27T09:40:36.817Z,22.85
2018-12-27T09:43:16.727Z,27.00
2018-12-27T09:45:56.755Z,27.73
2018-12-27T09:48:36.894Z,26.62
2018-12-27T09:51:16.815Z,23.70
2018-12-27T09:53:56.731Z,25.43
2018-12-27T09:56:36.927Z,27.65
2018-12-27T09:59:16.783Z,24.47
2018-12-27T10:01:57.037Z,26.35
2018-12-27T10:04:37.025Z,26.65
2018-12-27T10:07:16.981Z,27.93
2018-12-27T10:09:57.250Z,30.02
2018-12-27T10:12:37.178Z,26.68
2018-12-27T10:15:17.118Z,25.65
2018-12-27T10:17:57.081Z,25.90
2018-12-27T10:20:37.106Z,25.32
2018-12-27T10:23:16.992Z,25.08
2018-12-27T10:25:57.280Z,26.35
2018-12-27T10:28:37.517Z,23.87
2018-12-27T10:31:17.692Z,24.20
2018-12-27T10:33:57.573Z,29.98
2018-12-27T10:36:37.860Z,23.90
2018-12-27T10:39:17.550Z,31.70
2018-12-27T10:41:57.490Z,25.80
2018-12-27T10:44:37.423Z,22.35
2018-12-27T10:47:17.556Z,27.58
2018-12-27T10:49:57.364Z,23.20
2018-12-27T10:52:37.694Z,25.05
2018-12-27T10:55:17.537Z,25.72
2018-12-27T10:57:57.788Z,22.87
2018-12-27T11:00:37.729Z,23.73
2018-12-27T11:03:17.774Z,21.93
2018-12-27T11:05:57.873Z,21.82
2018-12-27T11:08:38.206Z,22.25
2018-12-27T11:11:18.332Z,22.98
2018-12-27T11:13:58.510Z,22.73
2018-12-27T11:16:38.545Z,25.30
2018-12-27T11:19:18.577Z,26.35
2018-12-27T11:21:58.671Z,27.77
2018-12-27T11:24:38.972Z,29.90
2018-12-27T11:27:19.062Z,27.70
2018-12-27T11:29:59.161Z,24.30
2018-12-27T11:32:39.228Z,27.17
2018-12-27T11:35:19.293Z,24.50
2018-12-27T11:37:59.356Z,27.20
2018-12-27T11:40:39.619Z,27.73
2018-12-27T11:43:19.553Z,27.67
2018-12-27T11:45:59.821Z,24.07
2018-12-27T11:48:39.999Z,25.27
2018-12-27T11:51:20.021Z,24.35
2018-12-27T11:53:59.908Z,23.12
2018-12-27T11:56:40.207Z,22.95
2018-12-27T11:59:19.971Z,25.77
2018-12-27T12:02:00.004Z,22.32
2018-12-27T12:04:40.044Z,22.30
2018-12-27T12:07:19.865Z,24.05
2018-12-27T12:10:00.178Z,28.17
2018-12-27T12:12:41.020Z,22.25
2018-12-27T12:15:21.060Z,24.57
2018-12-27T12:18:00.916Z,23.22
2018-12-27T12:20:41.231Z,25.30
2018-12-27T12:23:21.271Z,25.68
2018-12-27T12:26:01.510Z,27.05
2018-12-27T12:28:41.514Z,26.33
2018-12-27T12:31:21.906Z,25.88
2018-12-27T12:34:01.720Z,27.20
2018-12-27T12:36:41.774Z,23.27
2018-12-27T12:39:21.740Z,26.93
2018-12-27T12:42:01.965Z,25.05
2018-12-27T12:44:41.867Z,24.63
2018-12-27T12:47:22.094Z,21.85
2018-12-27T12:50:02.185Z,23.95
2018-12-27T12:52:42.458Z,25.00
2018-12-27T12:55:22.471Z,23.38
2018-12-27T12:58:02.573Z,26.77
2018-12-27T13:00:42.534Z,23.40
2018-12-27T13:03:22.564Z,21.50
2018-12-27T13:06:02.738Z,24.35
2018-12-27T13:08:42.908Z,21.85
2018-12-27T13:11:22.828Z,27.73
2018-12-27T13:14:03.177Z,21.73
2018-12-27T13:16:43.161Z,27.52
2018-12-27T13:19:23.243Z,28.42
2018-12-27T13:22:03.091Z,27.93
2018-12-27T13:24:43.292Z,29.37
2018-12-27T13:27:23.377Z,30.70
2018-12-27T13:30:03.384Z,26.02
2018-12-27T13:32:43.611Z,26.97
2018-12-27T13:35:23.658Z,32.70
2018-12-27T13:38:03.660Z,31.57
2018-12-27T13:40:43.840Z,25.45
2018-12-27T13:43:23.730Z,28.73
2018-12-27T13:46:03.874Z,27.25
2018-12-27T13:48:43.914Z,25.48
2018-12-27T13:51:23.988Z,28.90
2018-12-27T13:54:04.047Z,33.83
2018-12-27T13:56:44.097Z,29.05
2018-12-27T13:59:24.209Z,32.93
2018-12-27T14:02:03.952Z,33.02
2018-12-27T14:04:43.945Z,35.50
2018-12-27T14:07:23.836Z,34.08
2018-12-27T14:10:03.793Z,32.28
2018-12-27T14:12:43.899Z,33.08
2018-12-27T14:15:23.982Z,29.57
2018-12-27T14:18:03.890Z,37.48
2018-12-27T14:20:43.951Z,30.02
2018-12-27T14:23:24.136Z,39.35
2018-12-27T14:26:04.108Z,30.60
2018-12-27T14:34:28.737Z,34.95
2018-12-27T14:37:08.757Z,36.73
2018-12-27T14:39:48.604Z,36.93
2018-12-27T14:42:28.709Z,33.20
2018-12-27T14:45:08.693Z,35.83
2018-12-27T14:47:48.933Z,37.40
2018-12-27T14:50:28.917Z,32.58
2018-12-27T14:53:08.806Z,38.23
2018-12-27T14:55:48.866Z,34.90
2018-12-27T14:58:28.769Z,33.78
2018-12-27T15:01:08.724Z,34.78
2018-12-27T15:03:48.690Z,34.78
2018-12-27T15:06:28.836Z,32.38
2018-12-27T15:09:08.671Z,33.58
2018-12-27T15:11:48.768Z,35.50
2018-12-27T15:14:28.940Z,32.90
2018-12-27T15:17:08.790Z,30.80
2018-12-27T15:19:48.936Z,31.68
2018-12-27T15:22:28.849Z,36.93
2018-12-27T15:25:08.946Z,31.75
2018-12-27T15:27:48.797Z,31.73
2018-12-27T15:30:28.796Z,29.30
2018-12-27T15:33:08.824Z,35.63
2018-12-27T15:35:49.350Z,34.18
2018-12-27T15:38:29.155Z,32.88
2018-12-27T15:41:09.279Z,36.63
2018-12-27T15:43:49.288Z,34.25
2018-12-27T15:46:29.517Z,33.30
2018-12-27T15:49:09.637Z,34.88
2018-12-27T15:51:49.744Z,29.67
2018-12-27T15:54:29.722Z,31.80
2018-12-27T15:57:09.789Z,32.28
2018-12-27T15:59:49.676Z,31.50
2018-12-27T16:02:29.794Z,27.27
2018-12-27T16:05:12.035Z,29.37
2018-12-27T16:07:51.720Z,29.45
2018-12-27T16:10:31.822Z,34.88
2018-12-27T16:13:11.730Z,31.40
2018-12-27T16:15:51.777Z,30.77
2018-12-27T16:18:31.741Z,32.45
2018-12-27T16:21:12.150Z,29.23
2018-12-27T16:23:52.101Z,29.98
2018-12-27T16:26:32.422Z,33.42
2018-12-27T16:29:12.077Z,31.77
2018-12-27T16:31:52.318Z,36.55
2018-12-27T16:34:32.447Z,31.17
2018-12-27T16:37:12.239Z,34.48
2018-12-27T16:39:52.186Z,31.57
2018-12-27T16:42:32.279Z,57.35
2018-12-27T16:45:12.413Z,38.48
2018-12-27T16:47:52.535Z,33.40
2018-12-27T16:50:32.667Z,36.25
2018-12-27T16:53:12.954Z,30.50
2018-12-27T16:55:52.790Z,33.10
2018-12-27T16:58:32.603Z,34.67
2018-12-27T17:01:12.410Z,34.70
2018-12-27T17:03:52.419Z,33.90
2018-12-27T17:06:32.575Z,30.27
2018-12-27T17:09:12.591Z,33.73
2018-12-27T17:11:52.579Z,38.33
2018-12-27T17:14:32.635Z,38.55
2018-12-27T17:17:12.601Z,42.98
2018-12-27T17:19:52.926Z,38.73
2018-12-27T17:22:32.834Z,37.48
2018-12-27T17:25:12.919Z,36.45
2018-12-27T17:27:52.828Z,42.45
2018-12-27T17:30:33.073Z,37.15
2018-12-27T17:33:12.914Z,35.20
2018-12-27T17:35:52.798Z,36.30
2018-12-27T17:38:32.557Z,30.27
2018-12-27T17:41:12.847Z,30.52
2018-12-27T17:43:52.986Z,34.15
2018-12-27T17:46:33.032Z,30.80
2018-12-27T17:49:12.961Z,36.65
2018-12-27T17:51:53.100Z,38.28
2018-12-27T17:54:33.182Z,32.67
2018-12-27T17:57:13.294Z,31.73
2018-12-27T17:59:53.174Z,29.37
2018-12-27T18:02:34.390Z,32.35
2018-12-27T18:05:14.579Z,29.82
2018-12-27T18:07:54.510Z,40.35
2018-12-27T18:10:34.633Z,34.75
2018-12-27T18:13:14.521Z,36.68
2018-12-27T18:15:54.819Z,35.85
2018-12-27T18:18:34.601Z,30.90
2018-12-27T18:21:14.771Z,35.48
2018-12-27T18:23:54.730Z,40.98
2018-12-27T18:26:34.986Z,34.83
2018-12-27T18:29:14.918Z,37.83
2018-12-27T18:31:54.946Z,34.25
2018-12-27T18:34:34.981Z,32.30
2018-12-27T18:37:15.065Z,38.80
2018-12-27T18:39:55.359Z,35.43
2018-12-27T18:48:32.067Z,40.12
2018-12-27T18:51:12.097Z,36.85
2018-12-27T18:53:52.087Z,39.85
2018-12-27T18:56:32.030Z,40.10
2018-12-27T18:59:12.324Z,42.25
2018-12-27T19:01:52.256Z,34.40
2018-12-27T19:04:32.636Z,35.28
2018-12-27T19:07:12.483Z,36.00
2018-12-27T19:09:52.414Z,40.48
2018-12-27T19:12:32.267Z,37.05
2018-12-27T19:15:12.352Z,35.75
2018-12-27T19:17:52.311Z,35.25
2018-12-27T19:20:32.595Z,37.78
2018-12-27T19:23:12.503Z,41.28
2018-12-27T19:25:52.352Z,38.20
2018-12-27T19:28:32.438Z,35.23
2018-12-27T19:31:12.744Z,34.78
2018-12-27T19:33:52.867Z,73.15
2018-12-27T19:36:33.018Z,65.30
2018-12-27T19:39:13.136Z,51.60
2018-12-27T19:41:52.973Z,51.45
2018-12-27T19:44:33.065Z,48.75
2018-12-27T19:47:13.112Z,42.65
2018-12-27T19:49:53.358Z,43.85
2018-12-27T19:52:33.117Z,49.03
2018-12-27T19:55:13.184Z,40.03
2018-12-27T19:57:53.101Z,40.38
2018-12-27T20:00:33.217Z,35.80
2018-12-27T20:03:13.078Z,33.45
2018-12-27T20:05:53.114Z,37.63
2018-12-27T20:08:33.054Z,37.28
2018-12-27T20:11:13.188Z,38.40
2018-12-27T20:13:53.186Z,33.05
2018-12-27T20:16:33.262Z,35.52
2018-12-27T20:19:13.265Z,37.30
2018-12-27T20:21:53.489Z,34.83
2018-12-27T20:24:33.730Z,34.95
2018-12-27T20:27:13.620Z,34.40
2018-12-27T20:29:53.583Z,33.15
2018-12-27T20:32:33.597Z,34.43
2018-12-27T20:35:13.662Z,35.05
2018-12-27T20:37:53.592Z,35.00
2018-12-27T20:40:33.573Z,32.60
2018-12-27T20:43:13.562Z,39.10
2018-12-27T20:45:53.752Z,34.33
2018-12-27T20:51:34.872Z,36.60
2018-12-27T20:54:14.740Z,36.70
2018-12-27T20:56:54.855Z,44.80
2018-12-27T20:59:35.277Z,46.58
2018-12-27T21:02:15.204Z,43.58
2018-12-27T21:04:55.232Z,42.88
2018-12-27T21:07:35.220Z,42.50
2018-12-27T21:10:15.494Z,45.45
2018-12-27T21:12:55.537Z,42.10
2018-12-27T21:15:35.671Z,43.40
2018-12-27T21:21:11.966Z,42.13
2018-12-27T21:23:51.966Z,38.88
2018-12-27T21:26:32.210Z,40.05
2018-12-27T21:29:12.342Z,36.35
2018-12-27T21:31:52.417Z,40.43
2018-12-27T21:34:32.526Z,35.00
2018-12-27T21:37:12.841Z,36.08
2018-12-27T21:39:52.544Z,37.63
2018-12-27T21:42:32.538Z,38.42
2018-12-27T21:45:12.679Z,42.38
2018-12-27T21:47:52.564Z,37.75
2018-12-27T21:50:32.623Z,41.68
2018-12-27T21:53:12.588Z,39.08
2018-12-27T21:55:52.577Z,41.90
2018-12-27T21:58:32.690Z,38.95
2018-12-27T22:01:12.792Z,43.60
2018-12-27T22:03:52.976Z,37.40
2018-12-27T22:06:32.991Z,37.70
2018-12-27T22:09:13.026Z,42.73
2018-12-27T22:11:53.291Z,41.15
2018-12-27T22:14:33.272Z,38.33
2018-12-27T22:17:13.254Z,38.00
2018-12-27T22:19:53.173Z,41.83
2018-12-27T22:22:33.468Z,37.38
2018-12-27T22:25:13.448Z,41.37
2018-12-27T22:27:53.434Z,40.80
2018-12-27T22:30:33.465Z,44.53
2018-12-27T22:33:13.590Z,38.13
2018-12-27T22:35:53.548Z,39.38
2018-12-27T22:38:35.692Z,46.77
2018-12-27T22:41:15.777Z,43.25
2018-12-27T22:43:55.372Z,46.50
2018-12-27T22:46:35.600Z,39.92
2018-12-27T22:49:15.652Z,42.93
2018-12-27T22:51:55.718Z,39.65
2018-12-27T22:54:35.868Z,40.98
2018-12-27T22:57:15.829Z,46.15
2018-12-27T22:59:55.818Z,36.23
2018-12-27T23:02:35.721Z,46.63
2018-12-27T23:05:16.041Z,37.20
2018-12-27T23:07:55.955Z,43.38
2018-12-27T23:10:36.315Z,42.43
2018-12-27T23:13:16.316Z,43.42
2018-12-27T23:15:56.462Z,40.60
2018-12-27T23:18:36.653Z,40.60
2018-12-27T23:21:16.857Z,45.67
2018-12-27T23:23:57.106Z,38.90
2018-12-27T23:26:37.332Z,38.67
2018-12-27T23:29:17.417Z,40.43
2018-12-27T23:31:57.509Z,40.63
2018-12-27T23:34:37.529Z,39.92
2018-12-27T23:37:17.752Z,46.58
2018-12-27T23:39:57.812Z,50.00
2018-12-27T23:42:37.801Z,41.28
2018-12-27T23:45:18.037Z,43.48
2018-12-27T23:47:58.009Z,42.05
2018-12-27T23:50:38.241Z,43.98
2018-12-27T23:53:18.468Z,42.78
2018-12-27T23:55:58.196Z,40.98
2018-12-27T23:58:38.220Z,40.67
